createdAt,value
2022-11-14T00:01:21.362Z,15.93
2022-11-14T00:03:51.988Z,13.90
2022-11-14T00:06:19.801Z,12.57
2022-11-14T00:08:47.375Z,13.62
2022-11-14T00:11:15.048Z,12.57
2022-11-14T00:13:42.718Z,16.48
2022-11-14T00:16:10.356Z,13.90
2022-11-14T00:18:38.029Z,12.95
2022-11-14T00:21:05.751Z,13.62
2022-11-14T00:23:33.393Z,15.38
2022-11-14T00:26:01.013Z,12.37
2022-11-14T00:28:28.985Z,15.82
2022-11-14T00:30:56.811Z,14.95
2022-11-14T00:33:24.552Z,17.27
2022-11-14T00:35:56.807Z,16.52
2022-11-14T00:38:24.935Z,13.85
2022-11-14T00:40:52.626Z,13.93
2022-11-14T00:43:20.243Z,15.15
2022-11-14T00:45:48.915Z,15.82
2022-11-14T00:48:17.456Z,18.02
2022-11-14T00:50:45.605Z,14.65
2022-11-14T00:53:13.485Z,15.90
2022-11-14T00:55:42.409Z,14.75
2022-11-14T00:58:10.467Z,13.52
2022-11-14T01:00:38.440Z,15.95
2022-11-14T01:03:06.228Z,16.90
2022-11-14T01:05:33.900Z,17.00
2022-11-14T01:08:01.514Z,13.07
2022-11-14T01:10:29.126Z,16.05
2022-11-14T01:12:56.803Z,13.65
2022-11-14T01:15:24.449Z,15.45
2022-11-14T01:17:52.152Z,16.35
2022-11-14T01:20:19.842Z,15.52
2022-11-14T01:22:47.537Z,15.30
2022-11-14T01:25:15.235Z,17.15
2022-11-14T01:27:42.918Z,17.42
2022-11-14T01:30:10.983Z,13.88
2022-11-14T01:32:38.613Z,16.40
2022-11-14T01:35:06.362Z,15.82
2022-11-14T01:37:34.007Z,13.75
2022-11-14T01:40:01.611Z,13.27
2022-11-14T01:42:29.232Z,14.77
2022-11-14T01:44:56.916Z,18.20
2022-11-14T01:47:30.100Z,15.35
2022-11-14T01:50:02.196Z,16.27
2022-11-14T01:52:39.611Z,15.63
2022-11-14T01:55:09.879Z,16.27
2022-11-14T01:57:46.080Z,16.58
2022-11-14T02:00:14.421Z,16.62
2022-11-14T02:02:42.693Z,13.60
2022-11-14T02:05:14.397Z,15.23
2022-11-14T02:07:42.818Z,18.48
2022-11-14T02:10:16.932Z,16.10
2022-11-14T02:12:45.740Z,15.25
2022-11-14T02:15:15.481Z,13.50
2022-11-14T02:17:45.009Z,17.80
2022-11-14T02:20:12.933Z,17.27
2022-11-14T02:22:42.428Z,15.10
2022-11-14T02:25:14.029Z,19.27
2022-11-14T02:27:42.631Z,17.73
2022-11-14T02:30:17.361Z,19.55
2022-11-14T02:35:32.676Z,17.65
2022-11-14T02:38:00.337Z,18.90
2022-11-14T02:40:28.032Z,17.67
2022-11-14T02:42:55.619Z,18.10
2022-11-14T02:45:23.530Z,19.98
2022-11-14T02:47:51.335Z,18.23
2022-11-14T02:50:19.453Z,19.87
2022-11-14T02:52:47.046Z,17.87
2022-11-14T02:55:14.624Z,16.50
2022-11-14T02:57:42.272Z,16.98
2022-11-14T03:00:14.830Z,16.10
2022-11-14T03:02:42.682Z,16.02
2022-11-14T03:05:10.523Z,17.27
2022-11-14T03:07:38.231Z,17.02
2022-11-14T03:10:06.731Z,18.48
2022-11-14T03:12:34.438Z,16.48
2022-11-14T03:15:02.048Z,18.77
2022-11-14T03:17:32.995Z,19.98
2022-11-14T03:20:00.662Z,19.00
2022-11-14T03:22:29.111Z,21.40
2022-11-14T03:24:56.748Z,18.73
2022-11-14T03:27:24.411Z,18.12
2022-11-14T03:29:52.127Z,18.10
2022-11-14T03:32:19.749Z,18.55
2022-11-14T03:34:47.438Z,18.02
2022-11-14T03:37:15.061Z,19.75
2022-11-14T03:39:42.747Z,17.25
2022-11-14T03:42:10.728Z,18.80
2022-11-14T03:44:38.325Z,18.52
2022-11-14T03:47:06.131Z,18.73
2022-11-14T03:49:33.896Z,18.80
2022-11-14T03:52:01.520Z,17.40
2022-11-14T03:54:29.135Z,18.48
2022-11-14T03:56:56.751Z,18.20
2022-11-14T03:59:24.381Z,17.55
2022-11-14T04:01:52.067Z,17.83
2022-11-14T04:04:19.691Z,17.33
2022-11-14T04:06:47.427Z,17.62
2022-11-14T04:09:15.429Z,16.00
2022-11-14T04:11:43.153Z,15.40
2022-11-14T04:14:11.388Z,16.67
2022-11-14T04:16:39.049Z,16.37
2022-11-14T04:19:06.698Z,17.37
2022-11-14T04:21:34.311Z,18.20
2022-11-14T04:24:04.808Z,16.98
2022-11-14T04:26:34.732Z,14.43
2022-11-14T04:29:02.468Z,15.75
2022-11-14T04:31:30.163Z,15.07
2022-11-14T04:33:57.808Z,15.43
2022-11-14T04:36:25.427Z,16.37
2022-11-14T04:38:53.044Z,16.42
2022-11-14T04:41:20.685Z,15.05
2022-11-14T04:43:50.931Z,15.82
2022-11-14T04:46:18.825Z,14.85
2022-11-14T04:48:46.516Z,15.73
2022-11-14T04:51:14.132Z,14.52
2022-11-14T04:53:41.935Z,14.38
2022-11-14T04:56:09.628Z,16.80
2022-11-14T04:58:37.255Z,17.02
2022-11-14T05:01:12.400Z,15.95
2022-11-14T05:03:40.059Z,17.05
2022-11-14T05:06:07.941Z,14.23
2022-11-14T05:08:35.653Z,14.43
2022-11-14T05:11:03.314Z,14.95
2022-11-14T05:13:31.357Z,14.25
2022-11-14T05:16:02.514Z,16.55
2022-11-14T05:18:30.505Z,12.05
2022-11-14T05:21:02.283Z,11.57
2022-11-14T05:23:30.480Z,13.07
2022-11-14T05:26:16.655Z,14.38
2022-11-14T05:28:44.427Z,13.77
2022-11-14T05:31:14.793Z,13.32
2022-11-14T05:33:42.454Z,14.32
2022-11-14T05:36:12.644Z,13.00
2022-11-14T05:38:40.397Z,12.55
2022-11-14T05:41:09.976Z,13.68
2022-11-14T05:43:38.137Z,12.13
2022-11-14T05:46:08.321Z,11.77
2022-11-14T05:48:35.956Z,12.82
2022-11-14T05:51:05.878Z,13.62
2022-11-14T05:53:37.049Z,12.95
2022-11-14T05:56:07.611Z,14.13
2022-11-14T05:58:36.345Z,13.68
2022-11-14T06:01:12.735Z,14.00
2022-11-14T06:03:45.575Z,11.20
2022-11-14T06:06:19.057Z,12.15
2022-11-14T06:08:47.396Z,11.77
2022-11-14T06:11:20.814Z,13.02
2022-11-14T06:13:49.120Z,12.57
2022-11-14T06:16:19.636Z,12.77
2022-11-14T06:18:47.403Z,12.15
2022-11-14T06:21:16.940Z,11.50
2022-11-14T06:23:45.327Z,13.95
2022-11-14T06:26:32.718Z,13.18
2022-11-14T06:29:01.678Z,10.50
2022-11-14T06:31:29.635Z,12.40
2022-11-14T06:33:58.032Z,12.02
2022-11-14T06:36:25.705Z,13.68
2022-11-14T06:38:53.384Z,12.90
2022-11-14T06:41:23.055Z,13.50
2022-11-14T06:43:52.529Z,12.82
2022-11-14T06:46:22.586Z,13.35
2022-11-14T06:48:51.501Z,12.75
2022-11-14T06:51:20.259Z,14.65
2022-11-14T06:53:48.059Z,12.73
2022-11-14T06:56:17.577Z,13.70
2022-11-14T06:58:48.290Z,14.07
2022-11-14T07:01:18.963Z,14.23
2022-11-14T07:03:47.631Z,14.27
2022-11-14T07:06:20.776Z,15.45
2022-11-14T07:08:48.592Z,14.63
2022-11-14T07:11:23.902Z,15.48
2022-11-14T07:13:55.479Z,15.13
2022-11-14T07:16:30.592Z,16.83
2022-11-14T07:19:02.184Z,13.88
2022-11-14T07:21:31.102Z,14.90
2022-11-14T07:23:59.302Z,13.70
2022-11-14T07:26:28.285Z,15.15
2022-11-14T07:29:01.791Z,13.68
2022-11-14T07:31:29.997Z,15.63
2022-11-14T07:33:57.635Z,14.65
2022-11-14T07:36:25.637Z,15.70
2022-11-14T07:38:53.335Z,15.48
2022-11-14T07:41:21.058Z,16.67
2022-11-14T07:43:48.738Z,14.30
2022-11-14T07:46:18.491Z,14.80
2022-11-14T07:48:46.539Z,15.27
2022-11-14T07:51:19.672Z,13.70
2022-11-14T07:53:47.424Z,12.68
2022-11-14T07:56:15.416Z,13.90
2022-11-14T07:58:43.690Z,15.88
2022-11-14T08:01:13.417Z,13.75
2022-11-14T08:03:45.625Z,15.75
2022-11-14T08:06:16.349Z,18.48
2022-11-14T08:08:44.342Z,16.58
2022-11-14T08:11:12.838Z,17.12
2022-11-14T08:13:40.449Z,15.82
2022-11-14T08:16:13.415Z,18.08
2022-11-14T08:18:41.977Z,17.17
2022-11-14T08:21:09.941Z,14.75
2022-11-14T08:23:37.708Z,16.30
2022-11-14T08:26:05.462Z,17.62
2022-11-14T08:28:33.366Z,15.38
2022-11-14T08:31:05.510Z,17.87
2022-11-14T08:33:33.529Z,17.83
2022-11-14T08:36:05.756Z,16.50
2022-11-14T08:38:34.565Z,18.95
2022-11-14T08:41:04.173Z,16.90
2022-11-14T08:43:33.541Z,17.62
2022-11-14T08:46:04.909Z,16.87
2022-11-14T08:48:33.954Z,18.23
2022-11-14T08:51:06.940Z,15.63
2022-11-14T08:53:35.249Z,14.75
2022-11-14T08:56:03.232Z,17.37
2022-11-14T08:58:34.442Z,17.08
2022-11-14T09:01:07.725Z,15.90
2022-11-14T09:03:35.720Z,16.90
2022-11-14T09:06:04.117Z,17.98
2022-11-14T09:08:32.422Z,16.15
2022-11-14T09:11:05.964Z,15.35
2022-11-14T09:13:37.077Z,20.92
2022-11-14T09:16:04.813Z,15.00
2022-11-14T09:18:33.889Z,17.25
2022-11-14T09:21:07.274Z,18.00
2022-11-14T09:23:35.980Z,19.35
2022-11-14T09:26:08.957Z,17.40
2022-11-14T09:28:37.741Z,15.73
2022-11-14T09:31:08.711Z,21.17
2022-11-14T09:33:37.058Z,17.08
2022-11-14T09:36:08.199Z,16.83
2022-11-14T09:38:38.771Z,15.27
2022-11-14T09:41:09.762Z,16.27
2022-11-14T09:44:04.075Z,14.98
2022-11-14T09:46:40.298Z,15.52
2022-11-14T09:49:28.652Z,16.37
2022-11-14T09:52:04.741Z,15.13
2022-11-14T09:54:59.452Z,14.95
2022-11-14T09:57:27.805Z,13.65
2022-11-14T09:59:57.013Z,14.15
2022-11-14T10:02:56.732Z,14.77
2022-11-14T10:05:34.031Z,14.90
2022-11-14T10:08:29.392Z,14.52
2022-11-14T10:11:08.843Z,15.20
2022-11-14T10:14:06.179Z,14.75
2022-11-14T10:16:49.162Z,11.88
2022-11-14T10:19:42.507Z,11.05
2022-11-14T10:22:28.721Z,12.55
2022-11-14T10:25:25.704Z,10.93
2022-11-14T10:28:17.834Z,8.63
2022-11-14T10:31:30.475Z,8.68
2022-11-14T10:34:22.988Z,6.35
2022-11-14T10:36:59.657Z,8.25
2022-11-14T10:39:33.122Z,6.68
2022-11-14T10:42:09.372Z,6.57
2022-11-14T10:44:57.954Z,6.57
2022-11-14T10:47:29.036Z,7.20
2022-11-14T10:50:01.341Z,6.00
2022-11-14T10:52:41.132Z,7.20
2022-11-14T10:55:15.518Z,7.82
2022-11-14T10:57:45.171Z,6.55
2022-11-14T11:00:19.436Z,6.55
2022-11-14T11:02:51.539Z,11.32
2022-11-14T11:05:20.931Z,10.25
2022-11-14T11:08:36.053Z,9.35
2022-11-14T11:11:19.110Z,9.02
2022-11-14T11:13:56.934Z,9.75
2022-11-14T11:16:27.080Z,7.62
2022-11-14T11:18:54.942Z,6.05
2022-11-14T11:21:24.541Z,6.40
2022-11-14T11:23:56.978Z,5.90
2022-11-14T11:26:26.292Z,5.90
2022-11-14T11:29:12.182Z,6.10
2022-11-14T11:31:48.736Z,6.55
2022-11-14T11:34:17.100Z,8.35
2022-11-14T11:36:51.139Z,5.28
2022-11-14T11:39:27.642Z,4.35
2022-11-14T11:42:14.525Z,4.20
2022-11-14T11:44:47.932Z,6.93
2022-11-14T11:47:19.701Z,5.57
2022-11-14T11:49:53.875Z,5.50
2022-11-14T11:52:31.182Z,7.43
2022-11-14T11:55:14.500Z,5.68
2022-11-14T11:57:49.003Z,4.95
2022-11-14T12:00:22.228Z,5.05
2022-11-14T12:02:53.375Z,4.68
2022-11-14T12:05:38.456Z,4.75
2022-11-14T12:08:13.278Z,5.78
2022-11-14T12:10:43.768Z,5.25
2022-11-14T12:13:26.600Z,5.28
2022-11-14T12:16:20.667Z,5.60
2022-11-14T12:18:48.213Z,6.53
2022-11-14T12:21:52.013Z,5.80
2022-11-14T12:24:32.880Z,5.18
2022-11-14T12:27:12.516Z,6.75
2022-11-14T12:29:55.133Z,5.62
2022-11-14T12:32:42.728Z,7.05
2022-11-14T12:35:34.653Z,5.70
2022-11-14T12:38:06.152Z,5.80
2022-11-14T12:40:36.939Z,6.50
2022-11-14T12:43:07.877Z,5.78
2022-11-14T12:45:41.204Z,6.00
2022-11-14T12:48:28.552Z,5.95
2022-11-14T12:50:57.613Z,7.15
2022-11-14T12:53:37.016Z,7.70
2022-11-14T12:56:30.684Z,8.05
2022-11-14T12:59:10.471Z,7.37
2022-11-14T13:01:53.132Z,6.62
2022-11-14T13:04:47.286Z,6.15
2022-11-14T13:07:34.282Z,6.78
2022-11-14T13:10:14.840Z,5.28
2022-11-14T13:13:02.855Z,6.50
2022-11-14T13:15:52.393Z,5.32
2022-11-14T13:18:45.105Z,7.62
2022-11-14T13:21:42.327Z,5.25
2022-11-14T13:24:17.378Z,5.37
2022-11-14T13:26:47.435Z,5.70
2022-11-14T13:29:39.934Z,6.35
2022-11-14T13:32:13.836Z,6.18
2022-11-14T13:34:50.534Z,6.45
2022-11-14T13:37:55.930Z,5.47
2022-11-14T13:40:34.415Z,5.37
2022-11-14T13:43:40.601Z,7.37
2022-11-14T13:46:31.131Z,5.70
2022-11-14T13:49:19.189Z,5.20
2022-11-14T13:51:47.963Z,4.72
2022-11-14T13:54:18.485Z,7.50
2022-11-14T13:56:46.476Z,8.18
2022-11-14T13:59:36.812Z,8.52
2022-11-14T14:02:13.548Z,8.63
2022-11-14T14:05:05.273Z,10.30
2022-11-14T14:07:55.403Z,12.13
2022-11-14T14:10:49.476Z,7.75
2022-11-14T14:13:35.468Z,9.65
2022-11-14T14:16:29.186Z,8.98
2022-11-14T14:19:18.704Z,10.75
2022-11-14T14:22:02.052Z,9.48
2022-11-14T14:24:45.025Z,9.35
2022-11-14T14:27:22.425Z,9.25
2022-11-14T14:30:28.341Z,9.77
2022-11-14T14:33:08.147Z,7.35
2022-11-14T14:35:40.672Z,7.03
2022-11-14T14:38:23.859Z,8.02
2022-11-14T14:40:51.913Z,5.50
2022-11-14T14:43:32.579Z,9.10
2022-11-14T14:46:00.752Z,9.02
2022-11-14T14:48:32.074Z,11.55
2022-11-14T14:51:01.481Z,10.73
2022-11-14T14:53:32.436Z,9.20
2022-11-14T14:56:05.583Z,9.25
2022-11-14T14:58:35.758Z,8.93
2022-11-14T15:01:13.790Z,11.07
2022-11-14T15:03:49.326Z,10.57
2022-11-14T15:06:32.346Z,9.52
2022-11-14T15:09:14.985Z,9.73
2022-11-14T15:11:45.454Z,8.23
2022-11-14T15:14:25.942Z,7.32
2022-11-14T15:16:54.393Z,8.05
2022-11-14T15:19:25.824Z,6.28
2022-11-14T15:22:21.459Z,8.18
2022-11-14T15:25:14.467Z,6.97
2022-11-14T15:27:54.396Z,6.55
2022-11-14T15:30:35.607Z,7.05
2022-11-14T15:33:24.448Z,6.72
2022-11-14T15:36:10.151Z,7.53
2022-11-14T15:38:45.909Z,6.80
2022-11-14T15:41:24.994Z,7.30
2022-11-14T15:43:54.786Z,7.82
2022-11-14T15:46:38.891Z,5.97
2022-11-14T15:49:15.343Z,7.78
2022-11-14T15:52:01.733Z,7.15
2022-11-14T15:54:37.588Z,7.37
2022-11-14T15:57:23.501Z,9.07
2022-11-14T15:59:51.167Z,6.95
2022-11-14T16:02:25.643Z,9.20
2022-11-14T16:04:54.468Z,9.20
2022-11-14T16:07:23.081Z,8.32
2022-11-14T16:09:51.280Z,8.85
2022-11-14T16:12:19.074Z,9.13
2022-11-14T16:14:46.929Z,7.78
2022-11-14T16:17:18.940Z,8.55
2022-11-14T16:19:46.588Z,8.63
2022-11-14T16:22:17.982Z,11.15
2022-11-14T16:24:45.703Z,9.40
2022-11-14T16:27:13.389Z,8.65
2022-11-14T16:29:41.040Z,9.40
2022-11-14T16:32:11.555Z,12.05
2022-11-14T16:34:39.287Z,10.63
2022-11-14T16:37:07.289Z,12.10
2022-11-14T16:39:34.881Z,11.30
2022-11-14T16:42:03.713Z,11.65
2022-11-14T16:44:35.803Z,11.57
2022-11-14T16:47:08.030Z,9.30
2022-11-14T16:49:37.939Z,11.73
2022-11-14T16:52:09.567Z,12.73
2022-11-14T16:54:37.343Z,10.32
2022-11-14T16:57:05.020Z,9.73
2022-11-14T16:59:33.209Z,8.82
2022-11-14T17:02:00.884Z,8.52
2022-11-14T17:04:28.519Z,8.88
2022-11-14T17:06:56.238Z,9.68
2022-11-14T17:09:23.910Z,9.43
2022-11-14T17:11:51.603Z,8.93
2022-11-14T17:14:19.232Z,10.77
2022-11-14T17:16:47.721Z,8.68
2022-11-14T17:19:15.507Z,7.32
2022-11-14T17:21:43.976Z,9.02
2022-11-14T17:24:11.862Z,8.07
2022-11-14T17:26:39.739Z,8.30
2022-11-14T17:29:08.047Z,8.68
2022-11-14T17:31:38.331Z,8.65
2022-11-14T17:34:10.458Z,10.07
2022-11-14T17:36:38.161Z,9.18
2022-11-14T17:39:05.806Z,10.35
2022-11-14T17:41:34.680Z,13.23
2022-11-14T17:44:04.584Z,14.82
2022-11-14T17:46:32.443Z,12.88
2022-11-14T17:49:00.524Z,11.52
2022-11-14T17:51:28.380Z,12.50
2022-11-14T17:53:56.043Z,12.45
2022-11-14T17:56:25.734Z,13.23
2022-11-14T17:58:54.703Z,10.77
2022-11-14T18:01:25.008Z,12.88
2022-11-14T18:03:52.773Z,10.18
2022-11-14T18:06:22.200Z,10.68
2022-11-14T18:08:50.073Z,11.57
2022-11-14T18:11:18.709Z,9.02
2022-11-14T18:13:46.540Z,10.55
2022-11-14T18:16:17.454Z,10.52
2022-11-14T18:18:45.589Z,8.88
2022-11-14T18:21:19.304Z,12.57
2022-11-14T18:23:54.750Z,10.68
2022-11-14T18:26:28.489Z,9.68
2022-11-14T18:28:57.777Z,12.90
2022-11-14T18:31:26.529Z,10.63
2022-11-14T18:33:54.445Z,9.45
2022-11-14T18:36:22.751Z,10.60
2022-11-14T18:38:50.454Z,9.70
2022-11-14T18:41:21.982Z,9.75
2022-11-14T18:43:49.801Z,10.07
2022-11-14T18:46:20.752Z,8.88
2022-11-14T18:48:52.971Z,12.05
2022-11-14T18:51:23.548Z,10.48
2022-11-14T18:53:52.427Z,10.52
2022-11-14T18:56:22.791Z,9.68
2022-11-14T18:58:54.514Z,9.73
2022-11-14T19:01:26.097Z,12.10
2022-11-14T19:03:57.627Z,14.68
2022-11-14T19:06:25.403Z,14.27
2022-11-14T19:09:11.105Z,19.98
2022-11-14T19:11:58.178Z,21.33
2022-11-14T19:14:25.971Z,15.80
2022-11-14T19:16:53.941Z,17.83
2022-11-14T19:19:21.773Z,16.40
2022-11-14T19:21:53.508Z,13.35
2022-11-14T19:24:21.126Z,11.77
2022-11-14T19:26:48.988Z,34.70
2022-11-14T19:29:16.881Z,29.17
2022-11-14T19:31:44.705Z,31.20
2022-11-14T19:34:12.384Z,37.78
2022-11-14T19:39:27.783Z,47.33
2022-11-14T19:41:55.464Z,11.43
2022-11-14T19:44:23.090Z,14.75
2022-11-14T19:46:50.904Z,15.23
2022-11-14T19:49:18.544Z,17.60
2022-11-14T19:51:46.295Z,15.27
2022-11-14T19:54:14.060Z,24.60
2022-11-14T19:56:41.914Z,10.80
2022-11-14T19:59:14.351Z,13.90
2022-11-14T20:01:43.126Z,12.77
2022-11-14T20:04:13.447Z,22.27
2022-11-14T20:06:42.685Z,35.08
2022-11-14T20:09:11.574Z,29.45
2022-11-14T20:11:39.367Z,27.00
2022-11-14T20:14:07.300Z,13.70
2022-11-14T20:16:37.940Z,19.00
2022-11-14T20:19:06.078Z,15.73
2022-11-14T20:21:35.237Z,14.18
2022-11-14T20:24:03.290Z,12.18
2022-11-14T20:26:30.993Z,9.60
2022-11-14T20:29:00.135Z,16.73
2022-11-14T20:31:30.603Z,25.23
2022-11-14T20:33:58.308Z,19.27
2022-11-14T20:36:35.365Z,14.50
2022-11-14T20:39:15.443Z,22.92
2022-11-14T20:41:43.113Z,19.85
2022-11-14T20:44:10.875Z,48.28
2022-11-14T20:46:38.629Z,31.33
2022-11-14T20:49:08.201Z,24.02
2022-11-14T20:51:37.667Z,17.08
2022-11-14T20:54:05.429Z,34.20
2022-11-14T20:56:33.116Z,35.72
2022-11-14T20:59:00.810Z,54.53
2022-11-14T21:01:29.651Z,43.38
2022-11-14T21:03:57.388Z,58.20
2022-11-14T21:06:25.024Z,53.00
2022-11-14T21:08:52.638Z,102.93
2022-11-14T21:11:20.549Z,47.25
2022-11-14T21:13:57.216Z,69.28
2022-11-14T21:16:28.569Z,49.78
2022-11-14T21:18:56.661Z,78.35
2022-11-14T21:21:25.979Z,30.55
2022-11-14T21:23:54.312Z,56.47
2022-11-14T21:26:30.219Z,73.75
2022-11-14T21:29:06.355Z,58.53
2022-11-14T21:31:37.410Z,50.65
2022-11-14T21:34:08.003Z,70.93
2022-11-14T21:36:45.805Z,81.78
2022-11-14T21:39:16.289Z,58.90
2022-11-14T21:41:45.325Z,61.60
2022-11-14T21:44:15.531Z,59.55
2022-11-14T21:46:43.795Z,59.00
2022-11-14T21:49:11.518Z,49.35
2022-11-14T21:51:39.201Z,50.35
2022-11-14T21:54:07.511Z,37.60
2022-11-14T21:56:36.749Z,48.50
2022-11-14T21:59:14.708Z,104.87
2022-11-14T22:02:03.420Z,73.90
2022-11-14T22:04:32.569Z,32.05
2022-11-14T22:07:08.017Z,46.40
2022-11-14T22:09:41.079Z,78.30
2022-11-14T22:12:11.863Z,53.42
2022-11-14T22:14:39.516Z,62.42
2022-11-14T22:17:07.167Z,41.30
2022-11-14T22:19:34.837Z,57.33
2022-11-14T22:22:02.545Z,36.30
2022-11-14T22:24:30.189Z,57.58
2022-11-14T22:26:57.831Z,88.28
2022-11-14T22:29:25.469Z,73.72
2022-11-14T22:31:54.005Z,64.12
2022-11-14T22:34:21.627Z,58.33
2022-11-14T22:36:49.268Z,78.68
2022-11-14T22:39:16.863Z,46.58
2022-11-14T22:41:44.584Z,42.08
2022-11-14T22:44:12.301Z,45.45
2022-11-14T22:46:40.206Z,67.85
2022-11-14T22:49:07.872Z,53.08
2022-11-14T22:51:35.565Z,118.55
2022-11-14T22:54:03.204Z,87.05
2022-11-14T22:56:30.998Z,39.58
2022-11-14T22:59:00.637Z,80.47
2022-11-14T23:01:33.489Z,35.35
2022-11-14T23:04:04.017Z,81.82
2022-11-14T23:06:34.372Z,81.90
2022-11-14T23:09:03.530Z,91.93
2022-11-14T23:11:33.180Z,80.22
2022-11-14T23:14:02.028Z,47.28
2022-11-14T23:16:33.387Z,45.70
2022-11-14T23:19:03.386Z,68.62
2022-11-14T23:21:34.292Z,48.58
2022-11-14T23:24:07.979Z,60.60
2022-11-14T23:26:35.789Z,65.72
2022-11-14T23:29:04.193Z,41.42
2022-11-14T23:31:31.883Z,42.22
2022-11-14T23:33:59.672Z,47.78
2022-11-14T23:36:27.326Z,57.38
2022-11-14T23:38:55.170Z,38.63
2022-11-14T23:41:26.457Z,44.75
2022-11-14T23:43:54.478Z,40.05
2022-11-14T23:46:22.333Z,28.52
2022-11-14T23:48:50.236Z,47.88
2022-11-14T23:51:18.588Z,74.75
2022-11-14T23:53:46.384Z,55.42
2022-11-14T23:56:14.949Z,54.25
2022-11-14T23:58:42.975Z,49.22
